Terminal Aerodrome Forecast
Issued by NWS

Home | Current Version | Previous Version | Text Only | Print | Product List | Glossary Off
Versions: 1 2 3 4 5 6 7 8 9 10 11 12 13 14 15 16 17 18 19 20 21 22 23

868
FTUS43 KBIS 192122 AAB
TAFJMS
TAF AMD
KJMS 192122Z 1921/2018 16008KT 1SM BR OVC002
      TEMPO 1921/1924 1/4SM FZFG OVC001
     FM200100 16008KT 1SM BR OVC004
     FM200200 17009KT 2SM BR BKN008=

USA.gov is the U.S. government's official web portal to all federal, state and local government web resources and services.